sensor_id;sensor_type;location;lat;lon;timestamp;P1;durP1;ratioP1;P2;durP2;ratioP2
7128;SDS011;3606;52.930;8.644;2022-07-23T00:00:29;7.70;;;3.20;;
7128;SDS011;3606;52.930;8.644;2022-07-23T00:02:55;4.60;;;2.97;;
7128;SDS011;3606;52.930;8.644;2022-07-23T00:05:20;4.13;;;3.07;;
7128;SDS011;3606;52.930;8.644;2022-07-23T00:07:46;4.67;;;3.10;;
7128;SDS011;3606;52.930;8.644;2022-07-23T00:10:12;5.40;;;3.30;;
7128;SDS011;3606;52.930;8.644;2022-07-23T00:12:38;5.77;;;3.43;;
7128;SDS011;3606;52.930;8.644;2022-07-23T00:15:05;5.60;;;3.63;;
7128;SDS011;3606;52.930;8.644;2022-07-23T00:17:31;4.03;;;3.40;;
7128;SDS011;3606;52.930;8.644;2022-07-23T00:19:57;6.63;;;3.20;;
7128;SDS011;3606;52.930;8.644;2022-07-23T00:22:23;4.17;;;3.17;;
7128;SDS011;3606;52.930;8.644;2022-07-23T00:24:48;5.07;;;3.00;;
7128;SDS011;3606;52.930;8.644;2022-07-23T00:27:14;4.43;;;2.80;;
7128;SDS011;3606;52.930;8.644;2022-07-23T00:29:40;3.93;;;2.70;;
7128;SDS011;3606;52.930;8.644;2022-07-23T00:32:05;6.87;;;2.90;;
7128;SDS011;3606;52.930;8.644;2022-07-23T00:34:31;5.73;;;3.13;;
7128;SDS011;3606;52.930;8.644;2022-07-23T00:36:56;4.73;;;2.97;;
7128;SDS011;3606;52.930;8.644;2022-07-23T00:39:22;4.00;;;2.63;;
7128;SDS011;3606;52.930;8.644;2022-07-23T00:41:48;5.53;;;3.60;;
7128;SDS011;3606;52.930;8.644;2022-07-23T00:44:15;3.90;;;3.30;;
7128;SDS011;3606;52.930;8.644;2022-07-23T00:46:52;5.10;;;3.40;;
7128;SDS011;3606;52.930;8.644;2022-07-23T00:49:29;3.20;;;2.90;;
7128;SDS011;3606;52.930;8.644;2022-07-23T00:51:55;7.00;;;3.63;;
7128;SDS011;3606;52.930;8.644;2022-07-23T00:54:23;6.23;;;3.33;;
7128;SDS011;3606;52.930;8.644;2022-07-23T00:56:50;5.87;;;3.43;;
7128;SDS011;3606;52.930;8.644;2022-07-23T00:59:15;4.93;;;3.30;;
7128;SDS011;3606;52.930;8.644;2022-07-23T01:01:41;5.30;;;3.37;;
7128;SDS011;3606;52.930;8.644;2022-07-23T01:04:09;4.87;;;3.63;;
7128;SDS011;3606;52.930;8.644;2022-07-23T01:06:36;7.43;;;3.17;;
7128;SDS011;3606;52.930;8.644;2022-07-23T01:09:03;6.43;;;3.03;;
7128;SDS011;3606;52.930;8.644;2022-07-23T01:11:30;4.17;;;3.47;;
7128;SDS011;3606;52.930;8.644;2022-07-23T01:16:41;5.43;;;3.60;;
7128;SDS011;3606;52.930;8.644;2022-07-23T01:19:08;6.80;;;4.00;;
7128;SDS011;3606;52.930;8.644;2022-07-23T01:21:35;5.73;;;3.33;;
7128;SDS011;3606;52.930;8.644;2022-07-23T01:24:02;4.30;;;3.50;;
7128;SDS011;3606;52.930;8.644;2022-07-23T01:26:29;4.73;;;3.50;;
7128;SDS011;3606;52.930;8.644;2022-07-23T01:28:54;3.90;;;3.43;;
7128;SDS011;3606;52.930;8.644;2022-07-23T01:31:20;4.33;;;3.70;;
7128;SDS011;3606;52.930;8.644;2022-07-23T01:33:46;5.97;;;3.67;;
7128;SDS011;3606;52.930;8.644;2022-07-23T01:36:11;6.03;;;3.53;;
7128;SDS011;3606;52.930;8.644;2022-07-23T01:38:37;7.50;;;3.70;;
7128;SDS011;3606;52.930;8.644;2022-07-23T01:41:03;7.07;;;4.23;;
7128;SDS011;3606;52.930;8.644;2022-07-23T01:43:28;7.33;;;4.37;;
7128;SDS011;3606;52.930;8.644;2022-07-23T01:45:54;8.33;;;4.33;;
7128;SDS011;3606;52.930;8.644;2022-07-23T01:48:19;6.43;;;4.27;;
7128;SDS011;3606;52.930;8.644;2022-07-23T01:50:48;6.00;;;3.93;;
7128;SDS011;3606;52.930;8.644;2022-07-23T01:53:14;6.13;;;4.53;;
7128;SDS011;3606;52.930;8.644;2022-07-23T01:55:40;6.40;;;4.20;;
7128;SDS011;3606;52.930;8.644;2022-07-23T01:58:06;5.87;;;3.77;;
7128;SDS011;3606;52.930;8.644;2022-07-23T02:00:32;7.30;;;3.97;;
7128;SDS011;3606;52.930;8.644;2022-07-23T02:02:57;9.40;;;4.30;;
7128;SDS011;3606;52.930;8.644;2022-07-23T02:05:24;5.90;;;4.40;;
7128;SDS011;3606;52.930;8.644;2022-07-23T02:07:50;9.90;;;3.90;;
7128;SDS011;3606;52.930;8.644;2022-07-23T02:10:16;9.53;;;4.47;;
7128;SDS011;3606;52.930;8.644;2022-07-23T02:12:42;7.00;;;4.67;;
7128;SDS011;3606;52.930;8.644;2022-07-23T02:15:07;7.10;;;4.20;;
7128;SDS011;3606;52.930;8.644;2022-07-23T02:17:33;6.53;;;3.87;;
7128;SDS011;3606;52.930;8.644;2022-07-23T02:19:59;6.80;;;4.60;;
7128;SDS011;3606;52.930;8.644;2022-07-23T02:22:25;5.87;;;4.37;;
7128;SDS011;3606;52.930;8.644;2022-07-23T02:24:50;5.23;;;3.67;;
7128;SDS011;3606;52.930;8.644;2022-07-23T02:27:16;5.60;;;4.03;;
7128;SDS011;3606;52.930;8.644;2022-07-23T02:29:42;4.00;;;3.60;;
7128;SDS011;3606;52.930;8.644;2022-07-23T02:32:07;6.00;;;4.10;;
7128;SDS011;3606;52.930;8.644;2022-07-23T02:34:33;8.03;;;3.70;;
7128;SDS011;3606;52.930;8.644;2022-07-23T02:36:58;3.77;;;3.47;;
7128;SDS011;3606;52.930;8.644;2022-07-23T02:39:24;5.10;;;3.67;;
7128;SDS011;3606;52.930;8.644;2022-07-23T02:41:50;4.33;;;3.57;;
7128;SDS011;3606;52.930;8.644;2022-07-23T02:44:15;5.13;;;3.77;;
7128;SDS011;3606;52.930;8.644;2022-07-23T02:46:41;5.47;;;4.00;;
7128;SDS011;3606;52.930;8.644;2022-07-23T02:49:06;3.73;;;3.43;;
7128;SDS011;3606;52.930;8.644;2022-07-23T02:51:32;5.57;;;3.33;;
7128;SDS011;3606;52.930;8.644;2022-07-23T02:53:58;6.13;;;4.03;;
7128;SDS011;3606;52.930;8.644;2022-07-23T02:56:23;5.50;;;3.60;;
7128;SDS011;3606;52.930;8.644;2022-07-23T02:58:49;5.33;;;3.40;;
7128;SDS011;3606;52.930;8.644;2022-07-23T03:01:14;4.20;;;3.60;;
7128;SDS011;3606;52.930;8.644;2022-07-23T03:03:40;5.33;;;3.70;;
7128;SDS011;3606;52.930;8.644;2022-07-23T03:06:06;5.23;;;3.40;;
7128;SDS011;3606;52.930;8.644;2022-07-23T03:08:31;4.60;;;4.07;;
7128;SDS011;3606;52.930;8.644;2022-07-23T03:10:57;3.73;;;3.30;;
7128;SDS011;3606;52.930;8.644;2022-07-23T03:13:23;5.93;;;3.70;;
7128;SDS011;3606;52.930;8.644;2022-07-23T03:15:48;9.43;;;3.90;;
7128;SDS011;3606;52.930;8.644;2022-07-23T03:18:14;5.93;;;3.73;;
7128;SDS011;3606;52.930;8.644;2022-07-23T03:20:40;6.30;;;3.80;;
7128;SDS011;3606;52.930;8.644;2022-07-23T03:23:05;4.50;;;3.40;;
7128;SDS011;3606;52.930;8.644;2022-07-23T03:25:31;8.50;;;3.50;;
7128;SDS011;3606;52.930;8.644;2022-07-23T03:27:56;4.03;;;3.33;;
7128;SDS011;3606;52.930;8.644;2022-07-23T03:30:22;6.50;;;2.97;;
7128;SDS011;3606;52.930;8.644;2022-07-23T03:32:47;7.27;;;3.60;;
7128;SDS011;3606;52.930;8.644;2022-07-23T03:35:13;6.07;;;3.50;;
7128;SDS011;3606;52.930;8.644;2022-07-23T03:37:39;5.00;;;4.37;;
7128;SDS011;3606;52.930;8.644;2022-07-23T03:40:04;4.60;;;3.60;;
7128;SDS011;3606;52.930;8.644;2022-07-23T03:42:31;4.00;;;3.60;;
7128;SDS011;3606;52.930;8.644;2022-07-23T03:44:56;7.13;;;3.90;;
7128;SDS011;3606;52.930;8.644;2022-07-23T03:47:22;5.73;;;3.73;;
7128;SDS011;3606;52.930;8.644;2022-07-23T03:49:48;4.63;;;3.77;;
7128;SDS011;3606;52.930;8.644;2022-07-23T03:52:14;4.93;;;3.73;;
7128;SDS011;3606;52.930;8.644;2022-07-23T03:54:39;5.40;;;3.83;;
7128;SDS011;3606;52.930;8.644;2022-07-23T03:57:05;5.30;;;3.83;;
7128;SDS011;3606;52.930;8.644;2022-07-23T03:59:31;4.13;;;3.70;;
7128;SDS011;3606;52.930;8.644;2022-07-23T04:01:56;7.97;;;4.00;;
7128;SDS011;3606;52.930;8.644;2022-07-23T04:04:22;7.17;;;4.70;;
7128;SDS011;3606;52.930;8.644;2022-07-23T04:06:47;5.03;;;4.53;;
7128;SDS011;3606;52.930;8.644;2022-07-23T04:09:13;6.23;;;4.73;;
7128;SDS011;3606;52.930;8.644;2022-07-23T04:11:39;8.27;;;6.00;;
7128;SDS011;3606;52.930;8.644;2022-07-23T04:14:07;7.67;;;6.00;;
7128;SDS011;3606;52.930;8.644;2022-07-23T04:16:33;11.73;;;6.27;;
7128;SDS011;3606;52.930;8.644;2022-07-23T04:18:58;11.57;;;6.20;;
7128;SDS011;3606;52.930;8.644;2022-07-23T04:21:24;10.97;;;6.13;;
7128;SDS011;3606;52.930;8.644;2022-07-23T04:23:50;9.00;;;5.87;;
7128;SDS011;3606;52.930;8.644;2022-07-23T04:26:19;7.27;;;5.37;;
7128;SDS011;3606;52.930;8.644;2022-07-23T04:28:44;7.37;;;5.67;;
7128;SDS011;3606;52.930;8.644;2022-07-23T04:31:10;9.53;;;5.83;;
7128;SDS011;3606;52.930;8.644;2022-07-23T04:33:35;6.87;;;5.43;;
7128;SDS011;3606;52.930;8.644;2022-07-23T04:36:02;10.20;;;5.63;;
7128;SDS011;3606;52.930;8.644;2022-07-23T04:38:27;8.67;;;5.70;;
7128;SDS011;3606;52.930;8.644;2022-07-23T04:40:54;8.57;;;5.53;;
7128;SDS011;3606;52.930;8.644;2022-07-23T04:43:19;6.07;;;5.47;;
7128;SDS011;3606;52.930;8.644;2022-07-23T04:45:45;10.60;;;6.10;;
7128;SDS011;3606;52.930;8.644;2022-07-23T04:48:10;12.43;;;5.77;;
7128;SDS011;3606;52.930;8.644;2022-07-23T04:50:36;11.13;;;6.60;;
7128;SDS011;3606;52.930;8.644;2022-07-23T04:53:02;7.50;;;6.03;;
7128;SDS011;3606;52.930;8.644;2022-07-23T04:55:27;7.80;;;6.37;;
7128;SDS011;3606;52.930;8.644;2022-07-23T04:57:53;10.67;;;6.30;;
7128;SDS011;3606;52.930;8.644;2022-07-23T05:00:19;12.03;;;7.07;;
7128;SDS011;3606;52.930;8.644;2022-07-23T05:02:44;10.90;;;6.80;;
7128;SDS011;3606;52.930;8.644;2022-07-23T05:05:10;9.53;;;6.40;;
7128;SDS011;3606;52.930;8.644;2022-07-23T05:07:35;10.83;;;6.90;;
7128;SDS011;3606;52.930;8.644;2022-07-23T05:10:01;11.83;;;7.53;;
7128;SDS011;3606;52.930;8.644;2022-07-23T05:12:27;11.37;;;7.53;;
7128;SDS011;3606;52.930;8.644;2022-07-23T05:14:52;12.87;;;6.90;;
7128;SDS011;3606;52.930;8.644;2022-07-23T05:17:18;10.07;;;6.70;;
7128;SDS011;3606;52.930;8.644;2022-07-23T05:19:43;8.83;;;6.93;;
7128;SDS011;3606;52.930;8.644;2022-07-23T05:22:09;8.80;;;7.33;;
7128;SDS011;3606;52.930;8.644;2022-07-23T05:24:35;7.90;;;6.73;;
7128;SDS011;3606;52.930;8.644;2022-07-23T05:27:00;9.37;;;6.37;;
7128;SDS011;3606;52.930;8.644;2022-07-23T05:29:26;16.00;;;6.53;;
7128;SDS011;3606;52.930;8.644;2022-07-23T05:31:51;9.87;;;6.60;;
7128;SDS011;3606;52.930;8.644;2022-07-23T05:34:17;11.20;;;5.87;;
7128;SDS011;3606;52.930;8.644;2022-07-23T05:36:42;7.03;;;5.20;;
7128;SDS011;3606;52.930;8.644;2022-07-23T05:39:08;5.73;;;4.80;;
7128;SDS011;3606;52.930;8.644;2022-07-23T05:41:34;6.07;;;3.60;;
7128;SDS011;3606;52.930;8.644;2022-07-23T05:43:59;7.03;;;3.60;;
7128;SDS011;3606;52.930;8.644;2022-07-23T05:46:25;6.77;;;3.93;;
7128;SDS011;3606;52.930;8.644;2022-07-23T05:48:50;4.47;;;3.00;;
7128;SDS011;3606;52.930;8.644;2022-07-23T05:51:20;2.80;;;2.60;;
7128;SDS011;3606;52.930;8.644;2022-07-23T05:53:49;3.80;;;2.90;;
7128;SDS011;3606;52.930;8.644;2022-07-23T05:56:16;3.73;;;2.50;;
7128;SDS011;3606;52.930;8.644;2022-07-23T05:58:42;4.57;;;2.90;;
7128;SDS011;3606;52.930;8.644;2022-07-23T06:01:08;3.70;;;2.47;;
7128;SDS011;3606;52.930;8.644;2022-07-23T06:03:36;4.90;;;2.93;;
7128;SDS011;3606;52.930;8.644;2022-07-23T06:06:02;6.17;;;2.93;;
7128;SDS011;3606;52.930;8.644;2022-07-23T06:08:28;3.33;;;2.40;;
7128;SDS011;3606;52.930;8.644;2022-07-23T06:10:54;3.60;;;2.70;;
7128;SDS011;3606;52.930;8.644;2022-07-23T06:13:19;3.93;;;2.70;;
7128;SDS011;3606;52.930;8.644;2022-07-23T06:15:45;4.20;;;2.80;;
7128;SDS011;3606;52.930;8.644;2022-07-23T06:18:11;3.13;;;2.53;;
7128;SDS011;3606;52.930;8.644;2022-07-23T06:20:36;4.27;;;2.43;;
7128;SDS011;3606;52.930;8.644;2022-07-23T06:23:02;3.47;;;2.50;;
7128;SDS011;3606;52.930;8.644;2022-07-23T06:25:28;3.73;;;2.40;;
7128;SDS011;3606;52.930;8.644;2022-07-23T06:27:54;3.97;;;2.10;;
7128;SDS011;3606;52.930;8.644;2022-07-23T06:30:19;4.17;;;2.70;;
7128;SDS011;3606;52.930;8.644;2022-07-23T06:32:45;4.70;;;2.40;;
7128;SDS011;3606;52.930;8.644;2022-07-23T06:35:11;3.87;;;2.10;;
7128;SDS011;3606;52.930;8.644;2022-07-23T06:37:37;4.17;;;2.50;;
7128;SDS011;3606;52.930;8.644;2022-07-23T06:40:03;3.67;;;2.10;;
7128;SDS011;3606;52.930;8.644;2022-07-23T06:42:29;3.13;;;2.23;;
7128;SDS011;3606;52.930;8.644;2022-07-23T06:44:54;4.00;;;1.90;;
7128;SDS011;3606;52.930;8.644;2022-07-23T06:47:20;2.37;;;1.77;;
7128;SDS011;3606;52.930;8.644;2022-07-23T06:49:45;4.13;;;2.00;;
7128;SDS011;3606;52.930;8.644;2022-07-23T06:52:11;3.57;;;1.80;;
7128;SDS011;3606;52.930;8.644;2022-07-23T06:54:37;5.03;;;2.20;;
7128;SDS011;3606;52.930;8.644;2022-07-23T06:57:02;5.87;;;1.83;;
7128;SDS011;3606;52.930;8.644;2022-07-23T06:59:28;3.17;;;1.50;;
7128;SDS011;3606;52.930;8.644;2022-07-23T07:01:53;5.90;;;2.00;;
7128;SDS011;3606;52.930;8.644;2022-07-23T07:04:19;2.93;;;2.03;;
7128;SDS011;3606;52.930;8.644;2022-07-23T07:06:45;5.20;;;2.37;;
7128;SDS011;3606;52.930;8.644;2022-07-23T07:09:10;1.93;;;1.40;;
7128;SDS011;3606;52.930;8.644;2022-07-23T07:11:36;2.77;;;1.70;;
7128;SDS011;3606;52.930;8.644;2022-07-23T07:14:01;3.73;;;1.93;;
7128;SDS011;3606;52.930;8.644;2022-07-23T07:16:27;2.20;;;1.53;;
7128;SDS011;3606;52.930;8.644;2022-07-23T07:18:53;3.53;;;1.20;;
7128;SDS011;3606;52.930;8.644;2022-07-23T07:21:18;1.47;;;1.37;;
7128;SDS011;3606;52.930;8.644;2022-07-23T07:23:44;3.30;;;1.63;;
7128;SDS011;3606;52.930;8.644;2022-07-23T07:26:09;1.73;;;1.20;;
7128;SDS011;3606;52.930;8.644;2022-07-23T07:28:35;2.63;;;1.47;;
7128;SDS011;3606;52.930;8.644;2022-07-23T07:31:01;4.60;;;1.30;;
7128;SDS011;3606;52.930;8.644;2022-07-23T07:33:26;1.73;;;1.37;;
7128;SDS011;3606;52.930;8.644;2022-07-23T07:35:52;2.23;;;1.30;;
7128;SDS011;3606;52.930;8.644;2022-07-23T07:38:18;2.53;;;1.20;;
7128;SDS011;3606;52.930;8.644;2022-07-23T07:40:44;3.93;;;1.30;;
7128;SDS011;3606;52.930;8.644;2022-07-23T07:43:09;3.07;;;1.10;;
7128;SDS011;3606;52.930;8.644;2022-07-23T07:45:35;2.13;;;1.27;;
7128;SDS011;3606;52.930;8.644;2022-07-23T07:48:00;3.50;;;1.40;;
7128;SDS011;3606;52.930;8.644;2022-07-23T07:50:26;3.50;;;1.50;;
7128;SDS011;3606;52.930;8.644;2022-07-23T07:52:52;2.40;;;1.27;;
7128;SDS011;3606;52.930;8.644;2022-07-23T07:55:17;1.70;;;1.30;;
7128;SDS011;3606;52.930;8.644;2022-07-23T07:57:43;4.10;;;1.20;;
7128;SDS011;3606;52.930;8.644;2022-07-23T08:00:09;1.53;;;1.33;;
7128;SDS011;3606;52.930;8.644;2022-07-23T08:02:39;1.27;;;1.07;;
7128;SDS011;3606;52.930;8.644;2022-07-23T08:05:06;2.73;;;1.13;;
7128;SDS011;3606;52.930;8.644;2022-07-23T08:07:32;1.93;;;1.27;;
7128;SDS011;3606;52.930;8.644;2022-07-23T08:09:58;1.40;;;1.30;;
7128;SDS011;3606;52.930;8.644;2022-07-23T08:12:23;2.65;;;1.13;;
7128;SDS011;3606;52.930;8.644;2022-07-23T08:14:49;1.58;;;1.10;;
7128;SDS011;3606;52.930;8.644;2022-07-23T08:17:14;2.63;;;1.10;;
7128;SDS011;3606;52.930;8.644;2022-07-23T08:19:40;1.90;;;1.30;;
7128;SDS011;3606;52.930;8.644;2022-07-23T08:22:05;2.33;;;1.17;;
7128;SDS011;3606;52.930;8.644;2022-07-23T08:24:31;3.73;;;1.57;;
7128;SDS011;3606;52.930;8.644;2022-07-23T08:26:57;1.47;;;1.20;;
7128;SDS011;3606;52.930;8.644;2022-07-23T08:29:22;2.27;;;1.60;;
7128;SDS011;3606;52.930;8.644;2022-07-23T08:31:48;1.30;;;1.20;;
7128;SDS011;3606;52.930;8.644;2022-07-23T08:34:13;7.20;;;1.70;;
7128;SDS011;3606;52.930;8.644;2022-07-23T08:36:39;1.53;;;1.13;;
7128;SDS011;3606;52.930;8.644;2022-07-23T08:39:04;2.70;;;1.57;;
7128;SDS011;3606;52.930;8.644;2022-07-23T08:41:30;6.07;;;2.10;;
7128;SDS011;3606;52.930;8.644;2022-07-23T08:43:55;3.33;;;2.00;;
7128;SDS011;3606;52.930;8.644;2022-07-23T08:46:22;4.20;;;1.43;;
7128;SDS011;3606;52.930;8.644;2022-07-23T08:48:49;3.00;;;1.67;;
7128;SDS011;3606;52.930;8.644;2022-07-23T08:51:15;5.47;;;1.80;;
7128;SDS011;3606;52.930;8.644;2022-07-23T08:53:42;1.87;;;1.60;;
7128;SDS011;3606;52.930;8.644;2022-07-23T08:56:09;3.00;;;1.80;;
7128;SDS011;3606;52.930;8.644;2022-07-23T08:58:35;3.47;;;1.73;;
7128;SDS011;3606;52.930;8.644;2022-07-23T09:01:00;1.93;;;1.37;;
7128;SDS011;3606;52.930;8.644;2022-07-23T09:03:28;2.10;;;1.33;;
7128;SDS011;3606;52.930;8.644;2022-07-23T09:05:55;1.30;;;1.20;;
7128;SDS011;3606;52.930;8.644;2022-07-23T09:08:41;3.70;;;1.55;;
7128;SDS011;3606;52.930;8.644;2022-07-23T09:11:09;2.20;;;1.40;;
7128;SDS011;3606;52.930;8.644;2022-07-23T09:16:08;3.67;;;1.58;;
7128;SDS011;3606;52.930;8.644;2022-07-23T09:23:58;2.37;;;1.07;;
7128;SDS011;3606;52.930;8.644;2022-07-23T09:26:34;0.67;;;0.67;;
7128;SDS011;3606;52.930;8.644;2022-07-23T09:37:09;1.53;;;1.00;;
7128;SDS011;3606;52.930;8.644;2022-07-23T09:39:42;0.83;;;0.70;;
7128;SDS011;3606;52.930;8.644;2022-07-23T09:42:16;0.77;;;0.73;;
7128;SDS011;3606;52.930;8.644;2022-07-23T09:44:44;1.10;;;0.57;;
7128;SDS011;3606;52.930;8.644;2022-07-23T09:47:11;0.97;;;0.73;;
7128;SDS011;3606;52.930;8.644;2022-07-23T09:49:36;0.70;;;0.70;;
7128;SDS011;3606;52.930;8.644;2022-07-23T09:52:02;1.53;;;0.73;;
7128;SDS011;3606;52.930;8.644;2022-07-23T09:54:30;0.70;;;0.70;;
7128;SDS011;3606;52.930;8.644;2022-07-23T09:56:59;1.65;;;0.90;;
7128;SDS011;3606;52.930;8.644;2022-07-23T09:59:39;1.70;;;0.90;;
7128;SDS011;3606;52.930;8.644;2022-07-23T10:02:05;1.25;;;0.82;;
7128;SDS011;3606;52.930;8.644;2022-07-23T10:04:33;1.80;;;0.60;;
7128;SDS011;3606;52.930;8.644;2022-07-23T10:07:00;1.45;;;0.70;;
7128;SDS011;3606;52.930;8.644;2022-07-23T10:09:32;3.15;;;0.85;;
7128;SDS011;3606;52.930;8.644;2022-07-23T10:12:00;0.60;;;0.55;;
7128;SDS011;3606;52.930;8.644;2022-07-23T10:14:33;1.02;;;0.70;;
7128;SDS011;3606;52.930;8.644;2022-07-23T10:17:02;1.58;;;0.88;;
7128;SDS011;3606;52.930;8.644;2022-07-23T10:19:28;1.20;;;0.73;;
7128;SDS011;3606;52.930;8.644;2022-07-23T10:21:59;1.15;;;0.50;;
7128;SDS011;3606;52.930;8.644;2022-07-23T10:24:45;0.82;;;0.80;;
7128;SDS011;3606;52.930;8.644;2022-07-23T10:35:56;3.00;;;1.05;;
7128;SDS011;3606;52.930;8.644;2022-07-23T10:41:30;2.25;;;0.90;;
7128;SDS011;3606;52.930;8.644;2022-07-23T10:47:21;1.15;;;0.75;;
7128;SDS011;3606;52.930;8.644;2022-07-23T10:49:53;0.95;;;0.88;;
7128;SDS011;3606;52.930;8.644;2022-07-23T10:52:22;2.47;;;0.77;;
7128;SDS011;3606;52.930;8.644;2022-07-23T10:54:50;1.45;;;1.10;;
7128;SDS011;3606;52.930;8.644;2022-07-23T10:57:49;3.00;;;1.25;;
7128;SDS011;3606;52.930;8.644;2022-07-23T11:00:37;1.13;;;0.98;;
7128;SDS011;3606;52.930;8.644;2022-07-23T11:03:03;2.08;;;1.20;;
7128;SDS011;3606;52.930;8.644;2022-07-23T11:32:04;0.93;;;0.70;;
7128;SDS011;3606;52.930;8.644;2022-07-23T11:34:41;0.77;;;0.77;;
7128;SDS011;3606;52.930;8.644;2022-07-23T11:37:08;3.97;;;0.90;;
7128;SDS011;3606;52.930;8.644;2022-07-23T11:39:36;2.17;;;1.15;;
7128;SDS011;3606;52.930;8.644;2022-07-23T11:42:02;3.40;;;0.80;;
7128;SDS011;3606;52.930;8.644;2022-07-23T11:44:33;1.08;;;0.70;;
7128;SDS011;3606;52.930;8.644;2022-07-23T11:47:04;0.95;;;0.57;;
7128;SDS011;3606;52.930;8.644;2022-07-23T11:49:31;1.33;;;1.10;;
7128;SDS011;3606;52.930;8.644;2022-07-23T11:52:04;1.02;;;0.80;;
7128;SDS011;3606;52.930;8.644;2022-07-23T11:54:31;0.68;;;0.68;;
7128;SDS011;3606;52.930;8.644;2022-07-23T11:56:59;1.60;;;0.80;;
7128;SDS011;3606;52.930;8.644;2022-07-23T11:59:26;1.98;;;1.00;;
7128;SDS011;3606;52.930;8.644;2022-07-23T12:01:57;0.80;;;0.80;;
7128;SDS011;3606;52.930;8.644;2022-07-23T12:04:24;0.80;;;0.80;;
7128;SDS011;3606;52.930;8.644;2022-07-23T12:07:26;1.63;;;0.90;;
7128;SDS011;3606;52.930;8.644;2022-07-23T12:09:52;0.98;;;0.65;;
7128;SDS011;3606;52.930;8.644;2022-07-23T12:12:18;1.42;;;1.05;;
7128;SDS011;3606;52.930;8.644;2022-07-23T12:14:55;1.75;;;1.00;;
7128;SDS011;3606;52.930;8.644;2022-07-23T12:17:26;0.88;;;0.52;;
7128;SDS011;3606;52.930;8.644;2022-07-23T12:20:00;1.63;;;0.68;;
7128;SDS011;3606;52.930;8.644;2022-07-23T12:22:36;0.73;;;0.73;;
7128;SDS011;3606;52.930;8.644;2022-07-23T12:25:04;0.88;;;0.85;;
7128;SDS011;3606;52.930;8.644;2022-07-23T12:27:40;1.70;;;0.90;;
7128;SDS011;3606;52.930;8.644;2022-07-23T12:32:44;1.33;;;0.73;;
7128;SDS011;3606;52.930;8.644;2022-07-23T12:35:11;0.70;;;0.70;;
7128;SDS011;3606;52.930;8.644;2022-07-23T12:37:38;2.88;;;1.20;;
7128;SDS011;3606;52.930;8.644;2022-07-23T12:43:05;1.45;;;1.15;;
7128;SDS011;3606;52.930;8.644;2022-07-23T12:48:15;0.90;;;0.75;;
7128;SDS011;3606;52.930;8.644;2022-07-23T12:51:06;3.17;;;0.80;;
7128;SDS011;3606;52.930;8.644;2022-07-23T12:56:08;0.90;;;0.75;;
7128;SDS011;3606;52.930;8.644;2022-07-23T13:01:09;0.70;;;0.70;;
7128;SDS011;3606;52.930;8.644;2022-07-23T13:04:03;1.17;;;0.68;;
7128;SDS011;3606;52.930;8.644;2022-07-23T13:09:04;1.73;;;0.87;;
7128;SDS011;3606;52.930;8.644;2022-07-23T13:11:31;2.97;;;0.88;;
7128;SDS011;3606;52.930;8.644;2022-07-23T13:13:57;2.50;;;1.00;;
7128;SDS011;3606;52.930;8.644;2022-07-23T13:16:23;0.60;;;0.60;;
7128;SDS011;3606;52.930;8.644;2022-07-23T13:18:49;0.88;;;0.88;;
7128;SDS011;3606;52.930;8.644;2022-07-23T13:21:14;0.63;;;0.63;;
7128;SDS011;3606;52.930;8.644;2022-07-23T13:23:41;1.10;;;0.68;;
7128;SDS011;3606;52.930;8.644;2022-07-23T13:26:07;1.13;;;1.02;;
7128;SDS011;3606;52.930;8.644;2022-07-23T13:28:32;2.28;;;0.88;;
7128;SDS011;3606;52.930;8.644;2022-07-23T13:30:58;1.13;;;0.75;;
7128;SDS011;3606;52.930;8.644;2022-07-23T13:33:24;1.98;;;0.90;;
7128;SDS011;3606;52.930;8.644;2022-07-23T13:35:51;1.42;;;0.90;;
7128;SDS011;3606;52.930;8.644;2022-07-23T13:38:17;1.00;;;0.70;;
7128;SDS011;3606;52.930;8.644;2022-07-23T13:40:45;1.45;;;1.02;;
7128;SDS011;3606;52.930;8.644;2022-07-23T13:43:15;1.73;;;1.02;;
7128;SDS011;3606;52.930;8.644;2022-07-23T13:45:42;2.83;;;0.80;;
7128;SDS011;3606;52.930;8.644;2022-07-23T13:48:09;1.75;;;1.10;;
7128;SDS011;3606;52.930;8.644;2022-07-23T13:50:36;1.88;;;1.33;;
7128;SDS011;3606;52.930;8.644;2022-07-23T13:53:03;0.93;;;0.93;;
7128;SDS011;3606;52.930;8.644;2022-07-23T13:55:34;1.38;;;0.65;;
7128;SDS011;3606;52.930;8.644;2022-07-23T13:58:00;0.73;;;0.73;;
7128;SDS011;3606;52.930;8.644;2022-07-23T14:00:26;4.38;;;0.82;;
7128;SDS011;3606;52.930;8.644;2022-07-23T14:02:53;0.68;;;0.68;;
7128;SDS011;3606;52.930;8.644;2022-07-23T14:05:18;1.30;;;0.93;;
7128;SDS011;3606;52.930;8.644;2022-07-23T14:07:44;2.13;;;0.73;;
7128;SDS011;3606;52.930;8.644;2022-07-23T14:10:12;0.77;;;0.77;;
7128;SDS011;3606;52.930;8.644;2022-07-23T14:12:37;0.60;;;0.60;;
7128;SDS011;3606;52.930;8.644;2022-07-23T14:15:04;1.20;;;0.70;;
7128;SDS011;3606;52.930;8.644;2022-07-23T14:17:31;0.82;;;0.70;;
7128;SDS011;3606;52.930;8.644;2022-07-23T14:19:58;0.57;;;0.57;;
7128;SDS011;3606;52.930;8.644;2022-07-23T14:22:23;1.35;;;1.10;;
7128;SDS011;3606;52.930;8.644;2022-07-23T14:24:50;2.75;;;0.93;;
7128;SDS011;3606;52.930;8.644;2022-07-23T14:27:15;1.10;;;1.00;;
7128;SDS011;3606;52.930;8.644;2022-07-23T14:29:41;0.63;;;0.63;;
7128;SDS011;3606;52.930;8.644;2022-07-23T14:32:07;0.95;;;0.73;;
7128;SDS011;3606;52.930;8.644;2022-07-23T14:34:33;3.23;;;0.93;;
7128;SDS011;3606;52.930;8.644;2022-07-23T14:36:59;1.88;;;0.77;;
7128;SDS011;3606;52.930;8.644;2022-07-23T14:39:25;0.57;;;0.57;;
7128;SDS011;3606;52.930;8.644;2022-07-23T14:41:51;2.83;;;0.97;;
7128;SDS011;3606;52.930;8.644;2022-07-23T14:44:17;0.90;;;0.70;;
7128;SDS011;3606;52.930;8.644;2022-07-23T14:46:43;1.63;;;0.73;;
7128;SDS011;3606;52.930;8.644;2022-07-23T14:49:08;1.47;;;1.10;;
7128;SDS011;3606;52.930;8.644;2022-07-23T14:51:34;2.23;;;1.00;;
7128;SDS011;3606;52.930;8.644;2022-07-23T14:54:03;1.70;;;1.30;;
7128;SDS011;3606;52.930;8.644;2022-07-23T14:56:29;1.70;;;1.20;;
7128;SDS011;3606;52.930;8.644;2022-07-23T14:58:55;2.73;;;1.10;;
7128;SDS011;3606;52.930;8.644;2022-07-23T15:01:21;3.13;;;0.83;;
7128;SDS011;3606;52.930;8.644;2022-07-23T15:03:47;2.07;;;1.10;;
7128;SDS011;3606;52.930;8.644;2022-07-23T15:06:13;1.43;;;0.93;;
7128;SDS011;3606;52.930;8.644;2022-07-23T15:08:40;1.05;;;1.00;;
7128;SDS011;3606;52.930;8.644;2022-07-23T15:11:05;0.88;;;0.88;;
7128;SDS011;3606;52.930;8.644;2022-07-23T15:13:33;1.00;;;0.90;;
7128;SDS011;3606;52.930;8.644;2022-07-23T15:16:00;1.20;;;1.10;;
7128;SDS011;3606;52.930;8.644;2022-07-23T15:18:25;4.13;;;1.20;;
7128;SDS011;3606;52.930;8.644;2022-07-23T15:20:51;2.67;;;1.02;;
7128;SDS011;3606;52.930;8.644;2022-07-23T15:23:17;0.98;;;0.80;;
7128;SDS011;3606;52.930;8.644;2022-07-23T15:25:42;1.30;;;0.75;;
7128;SDS011;3606;52.930;8.644;2022-07-23T15:28:08;1.75;;;1.00;;
7128;SDS011;3606;52.930;8.644;2022-07-23T15:30:33;1.58;;;1.15;;
7128;SDS011;3606;52.930;8.644;2022-07-23T15:32:59;1.27;;;1.00;;
7128;SDS011;3606;52.930;8.644;2022-07-23T15:35:24;1.15;;;1.05;;
7128;SDS011;3606;52.930;8.644;2022-07-23T15:37:50;1.10;;;0.98;;
7128;SDS011;3606;52.930;8.644;2022-07-23T15:40:15;1.42;;;0.80;;
7128;SDS011;3606;52.930;8.644;2022-07-23T15:42:41;1.10;;;0.90;;
7128;SDS011;3606;52.930;8.644;2022-07-23T15:45:07;2.28;;;1.48;;
7128;SDS011;3606;52.930;8.644;2022-07-23T15:47:33;4.53;;;1.80;;
7128;SDS011;3606;52.930;8.644;2022-07-23T15:49:58;1.50;;;1.00;;
7128;SDS011;3606;52.930;8.644;2022-07-23T15:52:24;1.60;;;1.43;;
7128;SDS011;3606;52.930;8.644;2022-07-23T15:54:50;2.73;;;1.20;;
7128;SDS011;3606;52.930;8.644;2022-07-23T15:57:15;1.10;;;1.00;;
7128;SDS011;3606;52.930;8.644;2022-07-23T15:59:41;1.20;;;0.97;;
7128;SDS011;3606;52.930;8.644;2022-07-23T16:02:07;1.00;;;1.00;;
7128;SDS011;3606;52.930;8.644;2022-07-23T16:04:33;0.87;;;0.87;;
7128;SDS011;3606;52.930;8.644;2022-07-23T16:06:58;1.40;;;0.90;;
7128;SDS011;3606;52.930;8.644;2022-07-23T16:09:24;1.37;;;1.03;;
7128;SDS011;3606;52.930;8.644;2022-07-23T16:11:50;2.10;;;1.43;;
7128;SDS011;3606;52.930;8.644;2022-07-23T16:14:18;1.87;;;1.10;;
7128;SDS011;3606;52.930;8.644;2022-07-23T16:16:44;1.97;;;1.30;;
7128;SDS011;3606;52.930;8.644;2022-07-23T16:19:09;1.10;;;1.00;;
7128;SDS011;3606;52.930;8.644;2022-07-23T16:21:35;1.30;;;1.20;;
7128;SDS011;3606;52.930;8.644;2022-07-23T16:24:01;2.07;;;1.37;;
7128;SDS011;3606;52.930;8.644;2022-07-23T16:26:26;1.20;;;1.00;;
7128;SDS011;3606;52.930;8.644;2022-07-23T16:28:52;1.40;;;1.30;;